Terminal Aerodrome Forecast
Issued by NWS

Home | Current Version | Previous Version | Graphics & Text | Print | Product List | Glossary On
Versions: 1 2 3 4 5 6 7 8 9 10 11 12 13 14 15 16 17 18 19 20 21 22 23 24 25 26 27
895
FTUS43 KABR 241731
TAFPIR
TAF
KPIR 241731Z 2418/2518 01008KT P6SM FEW250
     FM250200 06007KT P6SM FEW250
     FM250700 07005KT 5SM BR FEW140
     FM250900 09006KT 6SM BR FEW090
     FM251500 14007KT P6SM FEW200=

USA.gov is the U.S. government's official web portal to all federal, state and local government web resources and services.